EGKKEGXC

Guest
Details From EGKK - London Gatwick
To EGXC - RAF Coningsby
Flight Number -
Tags decoded
Created
Modified
Stats Distance 126 nm / 234 km
Max Altitude 0 ft / 0 m
Waypoints 5
Social Downloads 1
Likes 0
Share VATSIM

Download

Looking for another format? Having issues loading an existing format? Contact us
Advertisement - Login to hide

Notes

Requested: EGKK LAM L10 BPK UN16 BKY EGXC Unmatched points: UN16

Route

EGKK LAM L10 BPK BKY EGXC

ID Type Via Altitude Latitude Longitude Leg Dist Tot Dist Heading (true) Name
O EGKK APT - 0 ft / 0 m 51.14875˚ -0.19247˚ - 0 nm - London Gatwick
LAM VOR - 0 ft / 0 m 51.64611˚ 0.15167˚ 32 nm 32 nm 23° / 23° LAMBOURNE VOR-DME
BPK VOR L10 (AWY-LO) 0 ft / 0 m 51.74972˚ -0.10667˚ 11 nm 43 nm 303° / 303° BROOKMANS PARK VOR-DME
BKY VOR - 0 ft / 0 m 51.98972˚ 0.06194˚ 15 nm 59 nm 23° / 24° BARKWAY VOR-DME
O EGXC APT - 0 ft / 0 m 53.09316˚ -0.16613˚ 66 nm 126 nm 353° / 353° RAF Coningsby

Altitude Profile

Advertisement - Login to hide

EGKK

Details ICAO EGKK (LGW)
Name London Gatwick
Region United Kingdom
Timezone Europe/London (UTC+1.0)
Stats Elevation 196 ft / 60 m (AMSL)
Location 51.148753° -0.192472°
Runways 2
Magnetic Variation 0.369° W

METAR

EGKK 211320Z 03007KT 360V090 CAVOK 20/10 Q1014

Decode

TAF

TAF EGKK 211100Z 2112/2218 05006KT 9999 FEW045 PROB30 TEMPO 2112/2119 4000 +TSRA PROB30 TEMPO 2200/2208 8000

Decode

Departure Runways

ID Width Length Bearing (true) Bearing (mag) Surface Threshold Offset Overrun Length
08L 148 ft / 45 m 8,377 ft / 2,553 m 77.69° 78.06° Asphalt 1,053 ft / 321 m 0 ft / 0 m
08R 148 ft / 45 m 10,341 ft / 3,152 m 77.59° 77.96° Asphalt 1,289 ft / 393 m 0 ft / 0 m
26L 148 ft / 45 m 10,341 ft / 3,152 m 257.63° 258.00° Asphalt 879 ft / 268 m 600 ft / 183 m
26R 148 ft / 45 m 8,377 ft / 2,553 m 257.71° 258.08° Asphalt 1,365 ft / 416 m 0 ft / 0 m

EGXC

Details ICAO EGXC (QCY)
Name RAF Coningsby
Region United Kingdom
Timezone Europe/London (UTC+1.0)
Stats Elevation 25 ft / 8 m (AMSL)
Location 53.093165° -0.166128°
Runways 1
Magnetic Variation 0.575° W

METAR

EGXC 211250Z 07009KT CAVOK 22/08 Q1016 BLU NOSIG

Decode

TAF

TAF EGXC 210720Z 2109/2203 04008KT CAVOK BECMG 2200/2203 6000 HZ

Decode

Destination Runways

ID Width Length Bearing (true) Bearing (mag) Surface Threshold Offset Overrun Length
08 200 ft / 61 m 8,962 ft / 2,732 m 71.85° 72.42° Concrete 0 ft / 0 m 0 ft / 0 m
26 200 ft / 61 m 8,962 ft / 2,732 m 251.89° 252.46° Concrete 0 ft / 0 m 0 ft / 0 m

Approach Navaids

Runway Type Ident Frequency Range Bearing (true) Bearing (mag) Slope Elevation
26 Localiser CY 110.70 MHz 18 nm / 33 km 251.85° 252.42° - 25 ft / 8 m (AMSL)
26 Glidescope CY 110.70 MHz 10 nm / 19 km 251.87° 252.44° 2.50° 25 ft / 8 m (AMSL)

Popular Alternatives